Time;durP1;ratioP1;P1;durP2;ratioP2;P2;SDS_P1;SDS_P2;PMS_P1;PMS_P2;Temp;Humidity;BMP_temperature;BMP_pressure;BME280_temperature;BME280_humidity;BME280_pressure;Samples;Min_cycle;Max_cycle;Signal;HPM_P1;HPM_P2
2022/06/05 00:00:59;;;;;;;;;;;;;;;24.07;66.81;99713.91;5033465;28;19940;-48
2022/06/05 00:03:25;;;;;;;;;;;;;;;24.24;66.32;99718.00;5032948;28;19952;-47
2022/06/05 00:06:09;;;;;;;;;;;;;;;24.05;66.53;99720.75;5032351;28;19909;-47
2022/06/05 00:08:42;;;;;;;;;;;;;;;24.00;67.04;99716.19;5031578;28;19915;-48
2022/06/05 00:11:08;;;;;;;;;;;;;;;24.02;66.67;99711.25;5033313;28;20320;-47
2022/06/05 00:13:51;;;;;;;;;;;;;;;24.03;66.75;99709.34;5032552;28;19991;-49
2022/06/05 00:16:18;;;;;;;;;;;;;;;23.96;66.64;99715.97;5032576;28;20317;-51
2022/06/05 00:18:45;;;;;;;;;;;;;;;23.71;67.56;99708.94;5032893;28;19970;-50
2022/06/05 00:21:11;;;;;;;;;;;;;;;23.53;68.34;99726.00;5032691;28;20417;-50
2022/06/05 00:23:37;;;;;;;;;;;;;;;23.60;68.06;99721.03;5032527;28;20003;-37
2022/06/05 00:26:08;;;;;;;;;;;;;;;23.70;67.64;99720.09;5032916;28;19909;-48
2022/06/05 00:28:33;;;;;;;;;;;;;;;23.93;66.53;99722.00;5032739;28;20000;-47
2022/06/05 00:31:17;;;;;;;;;;;;;;;24.03;65.77;99723.75;5032365;28;20337;-49
2022/06/05 00:33:43;;;;;;;;;;;;;;;23.61;66.64;99728.09;5032383;28;19913;-47
2022/06/05 00:36:26;;;;;;;;;;;;;;;23.55;66.41;99699.34;5032737;28;20026;-49
2022/06/05 00:39:14;;;;;;;;;;;;;;;23.43;67.09;99733.16;5032430;28;19909;-50
2022/06/05 00:41:58;;;;;;;;;;;;;;;23.41;66.80;99729.13;5031853;28;20629;-47
2022/06/05 00:44:28;;;;;;;;;;;;;;;23.53;66.28;99731.41;5031827;28;19916;-48
2022/06/05 00:46:53;;;;;;;;;;;;;;;23.36;66.53;99729.16;5051852;28;19912;-49
2022/06/05 00:49:20;;;;;;;;;;;;;;;23.02;67.76;99716.50;5051953;28;19990;-47
2022/06/05 00:51:46;;;;;;;;;;;;;;;22.97;68.29;99720.03;5051880;28;19979;-47
2022/06/05 00:54:11;;;;;;;;;;;;;;;23.26;67.16;99724.66;5052004;28;19917;-47
2022/06/05 00:56:37;;;;;;;;;;;;;;;22.99;68.26;99717.06;5052263;28;20354;-47
2022/06/05 00:59:03;;;;;;;;;;;;;;;23.43;66.53;99719.56;5051997;28;19958;-48
2022/06/05 01:01:28;;;;;;;;;;;;;;;23.19;67.31;99706.03;5051469;28;19912;-48
2022/06/05 01:04:00;;;;;;;;;;;;;;;23.05;67.91;99712.41;5051650;28;20362;-49
2022/06/05 01:06:26;;;;;;;;;;;;;;;22.84;68.83;99710.66;5051742;28;20368;-48
2022/06/05 01:08:51;;;;;;;;;;;;;;;23.16;67.27;99711.22;5051835;28;19909;-49
2022/06/05 01:11:23;;;;;;;;;;;;;;;23.34;66.56;99718.63;5050120;28;19909;-48
2022/06/05 01:13:49;;;;;;;;;;;;;;;23.28;65.53;99708.91;5031247;28;20431;-48
2022/06/05 01:16:43;;;;;;;;;;;;;;;22.77;67.13;99712.94;5031425;28;19909;-48
2022/06/05 01:19:17;;;;;;;;;;;;;;;22.89;66.82;99719.88;5026436;28;19963;-47
2022/06/05 01:21:51;;;;;;;;;;;;;;;22.89;66.34;99723.38;5031238;28;19916;-50
2022/06/05 01:24:43;;;;;;;;;;;;;;;22.99;65.62;99715.13;5030959;28;20429;-48
2022/06/05 01:27:12;;;;;;;;;;;;;;;22.95;65.65;99714.09;5031420;28;19999;-48
2022/06/05 01:29:40;;;;;;;;;;;;;;;22.88;65.86;99710.09;5031538;28;19909;-48
2022/06/05 01:32:09;;;;;;;;;;;;;;;22.81;65.71;99715.88;5031685;28;20331;-47
2022/06/05 01:34:47;;;;;;;;;;;;;;;22.70;65.86;99719.78;5031722;28;19919;-50
2022/06/05 01:37:12;;;;;;;;;;;;;;;22.52;66.11;99732.91;5031838;28;20366;-47
2022/06/05 01:39:53;;;;;;;;;;;;;;;22.96;64.75;99731.19;5032054;28;19909;-47
2022/06/05 01:42:27;;;;;;;;;;;;;;;22.94;64.65;99734.19;5031992;28;19905;-47
2022/06/05 01:44:55;;;;;;;;;;;;;;;22.75;65.44;99738.69;5031180;28;20031;-47
2022/06/05 01:47:23;;;;;;;;;;;;;;;22.48;65.66;99736.47;5031616;28;19932;-47
2022/06/05 01:49:56;;;;;;;;;;;;;;;22.46;66.27;99734.03;5031310;28;20328;-48
2022/06/05 01:52:22;;;;;;;;;;;;;;;22.21;67.09;99733.09;5031033;28;20446;-48
2022/06/05 01:54:47;;;;;;;;;;;;;;;22.60;65.71;99731.53;5031307;28;19917;-48
2022/06/05 01:57:15;;;;;;;;;;;;;;;22.64;65.12;99729.84;5031708;28;20329;-48
2022/06/05 01:59:49;;;;;;;;;;;;;;;22.55;65.69;99731.56;5031468;28;19916;-47
2022/06/05 02:02:16;;;;;;;;;;;;;;;22.17;67.20;99729.34;5034964;28;20222;-47
2022/06/05 02:04:46;;;;;;;;;;;;;;;22.28;67.13;99734.72;5050876;28;19932;-46
2022/06/05 02:07:33;;;;;;;;;;;;;;;22.25;67.11;99738.81;5050943;28;19915;-47
2022/06/05 02:10:03;;;;;;;;;;;;;;;22.26;66.86;99732.31;5051163;28;19954;-47
2022/06/05 02:12:29;;;;;;;;;;;;;;;22.24;67.28;99720.91;5039499;28;20385;-48
2022/06/05 02:14:54;;;;;;;;;;;;;;;22.33;67.11;99724.66;5031217;28;19913;-46
2022/06/05 02:17:20;;;;;;;;;;;;;;;22.30;67.20;99725.22;5030833;28;20032;-47
2022/06/05 02:19:45;;;;;;;;;;;;;;;22.23;67.78;99724.69;5031461;28;19941;-47
2022/06/05 02:22:18;;;;;;;;;;;;;;;22.33;67.69;99729.25;5031090;28;20451;-51
2022/06/05 02:24:44;;;;;;;;;;;;;;;22.29;67.80;99725.50;5031398;28;20014;-51
2022/06/05 02:27:09;;;;;;;;;;;;;;;22.18;68.34;99730.13;5031393;28;20018;-46
2022/06/05 02:29:35;;;;;;;;;;;;;;;22.27;67.89;99725.78;5030544;28;19978;-48
2022/06/05 02:32:03;;;;;;;;;;;;;;;22.60;66.65;99718.75;5031104;28;19966;-47
2022/06/05 02:34:37;;;;;;;;;;;;;;;22.29;68.30;99720.06;5031208;28;19951;-53
2022/06/05 02:37:05;;;;;;;;;;;;;;;22.27;68.40;99711.41;5030798;28;19909;-51
2022/06/05 02:39:41;;;;;;;;;;;;;;;22.29;68.16;99707.31;5030991;28;20365;-49
2022/06/05 02:42:09;;;;;;;;;;;;;;;22.31;68.08;99710.56;5030962;28;19909;-47
2022/06/05 02:44:38;;;;;;;;;;;;;;;22.28;68.40;99713.84;5030948;28;20051;-47
2022/06/05 02:47:12;;;;;;;;;;;;;;;22.26;68.74;99702.50;5031211;28;19909;-50
2022/06/05 02:49:42;;;;;;;;;;;;;;;22.15;69.13;99717.97;5030528;28;19909;-47
2022/06/05 02:52:08;;;;;;;;;;;;;;;22.23;68.95;99725.50;5030852;28;19922;-50
2022/06/05 02:54:38;;;;;;;;;;;;;;;22.29;68.95;99726.28;5030849;28;19970;-46
2022/06/05 02:57:03;;;;;;;;;;;;;;;22.37;68.92;99730.31;5031233;28;19912;-46
2022/06/05 02:59:29;;;;;;;;;;;;;;;22.40;68.96;99727.03;5030713;28;19982;-47
2022/06/05 03:04:38;;;;;;;;;;;;;;;22.70;67.97;99734.13;5031008;28;19916;-49
2022/06/05 03:07:04;;;;;;;;;;;;;;;22.66;68.23;99733.09;5030712;28;20285;-50
2022/06/05 03:09:29;;;;;;;;;;;;;;;22.49;68.89;99735.41;5030462;28;19936;-46
2022/06/05 03:11:54;;;;;;;;;;;;;;;22.64;68.60;99725.22;5037318;28;19908;-48
2022/06/05 03:14:20;;;;;;;;;;;;;;;22.68;68.93;99720.06;5050322;28;19917;-47
2022/06/05 03:16:45;;;;;;;;;;;;;;;22.79;68.79;99727.00;5050712;28;19947;-47
2022/06/05 03:19:10;;;;;;;;;;;;;;;22.74;69.25;99718.09;5050425;28;19963;-47
2022/06/05 03:21:37;;;;;;;;;;;;;;;22.87;69.21;99714.72;5050236;28;19927;-51
2022/06/05 03:24:02;;;;;;;;;;;;;;;22.93;68.96;99721.72;5050412;28;19927;-45
2022/06/05 03:26:28;;;;;;;;;;;;;;;22.98;68.81;99732.53;5050618;28;20353;-48
2022/06/05 03:28:53;;;;;;;;;;;;;;;23.12;68.33;99740.03;5050306;28;19974;-50
2022/06/05 03:31:18;;;;;;;;;;;;;;;22.99;68.97;99741.47;5049599;28;19916;-47
2022/06/05 03:33:44;;;;;;;;;;;;;;;23.21;68.52;99741.03;5050267;28;19917;-47
2022/06/05 03:36:10;;;;;;;;;;;;;;;23.25;68.30;99725.78;5049178;28;19920;-47
2022/06/05 03:38:36;;;;;;;;;;;;;;;23.27;68.51;99736.34;5050459;28;19908;-47
2022/06/05 03:41:02;;;;;;;;;;;;;;;23.29;68.16;99728.72;5051610;28;20003;-47
2022/06/05 03:43:27;;;;;;;;;;;;;;;23.33;67.74;99724.34;5053694;28;19909;-50
2022/06/05 03:46:06;;;;;;;;;;;;;;;23.61;66.82;99706.34;5054438;28;19916;-50
2022/06/05 03:48:31;;;;;;;;;;;;;;;23.91;65.16;99712.50;5054025;28;19962;-47
2022/06/05 03:50:57;;;;;;;;;;;;;;;24.12;63.76;99713.84;5054055;28;19920;-47
2022/06/05 03:53:22;;;;;;;;;;;;;;;24.32;63.20;99711.91;5052749;28;19927;-47
2022/06/05 03:55:48;;;;;;;;;;;;;;;24.63;61.85;99722.31;5053122;28;19908;-47
2022/06/05 03:58:13;;;;;;;;;;;;;;;24.93;60.52;99723.72;5053334;28;19981;-50
2022/06/05 04:00:40;;;;;;;;;;;;;;;24.89;60.21;99712.63;5053743;28;19908;-48
2022/06/05 04:03:05;;;;;;;;;;;;;;;25.20;59.79;99708.53;5053258;28;19943;-46
2022/06/05 04:05:30;;;;;;;;;;;;;;;25.42;57.97;99710.56;5053549;28;19952;-46
2022/06/05 04:07:56;;;;;;;;;;;;;;;25.42;58.33;99705.13;5053477;28;19908;-47
2022/06/05 04:10:21;;;;;;;;;;;;;;;25.55;57.75;99696.13;5053651;28;19985;-46
2022/06/05 04:12:47;;;;;;;;;;;;;;;25.29;57.83;99699.38;5038901;28;20364;-46
2022/06/05 04:15:12;;;;;;;;;;;;;;;25.16;58.67;99700.16;5032758;28;20003;-47
2022/06/05 04:17:38;;;;;;;;;;;;;;;25.09;58.96;99700.56;5033041;28;20385;-47
2022/06/05 04:20:04;;;;;;;;;;;;;;;24.84;59.52;99709.19;5032551;28;19931;-49
2022/06/05 04:22:29;;;;;;;;;;;;;;;24.75;59.27;99714.50;5032562;28;19909;-46
2022/06/05 04:24:55;;;;;;;;;;;;;;;24.64;59.94;99722.03;5032344;28;19909;-47
2022/06/05 04:27:20;;;;;;;;;;;;;;;24.49;59.95;99716.81;5033076;28;19913;-48
2022/06/05 04:29:45;;;;;;;;;;;;;;;24.65;51.20;99718.19;5032736;28;19919;-48
2022/06/05 04:32:10;;;;;;;;;;;;;;;25.01;57.90;99711.34;5032569;28;19917;-49
2022/06/05 04:34:37;;;;;;;;;;;;;;;24.91;58.51;99701.44;5031083;28;19913;-46
2022/06/05 04:37:02;;;;;;;;;;;;;;;24.70;59.48;99701.00;5048378;28;19908;-47
2022/06/05 04:39:28;;;;;;;;;;;;;;;24.78;59.36;99697.59;5052868;28;19928;-49
2022/06/05 04:41:53;;;;;;;;;;;;;;;24.74;59.06;99699.28;5052614;28;19913;-48
2022/06/05 04:44:18;;;;;;;;;;;;;;;24.69;58.92;99702.09;5052527;28;19955;-47
2022/06/05 04:46:44;;;;;;;;;;;;;;;24.68;59.08;99697.78;5052740;28;19909;-48
2022/06/05 04:49:10;;;;;;;;;;;;;;;25.01;58.14;99695.00;5052712;28;20098;-50
2022/06/05 04:51:36;;;;;;;;;;;;;;;25.51;56.81;99692.41;5053024;28;20328;-49
2022/06/05 04:54:02;;;;;;;;;;;;;;;25.74;55.76;99685.09;5051905;28;20016;-50
2022/06/05 04:56:28;;;;;;;;;;;;;;;26.18;54.31;99683.59;5052648;28;19948;-49
2022/06/05 04:58:54;;;;;;;;;;;;;;;26.36;53.55;99687.25;5051907;28;20532;-46
2022/06/05 05:01:22;;;;;;;;;;;;;;;26.64;52.65;99676.25;5051544;28;19998;-48
2022/06/05 05:03:47;;;;;;;;;;;;;;;26.78;51.92;99678.88;5051349;28;19908;-46
2022/06/05 05:06:13;;;;;;;;;;;;;;;27.24;50.16;99675.69;5051301;28;20128;-46
2022/06/05 05:08:38;;;;;;;;;;;;;;;27.62;49.20;99677.09;5051376;28;19908;-48
2022/06/05 05:11:04;;;;;;;;;;;;;;;27.86;48.64;99682.91;5050944;28;20392;-48
2022/06/05 05:13:29;;;;;;;;;;;;;;;28.10;48.11;99681.66;5031239;28;19909;-48
2022/06/05 05:15:55;;;;;;;;;;;;;;;28.50;47.37;99686.13;5032190;28;20000;-50
2022/06/05 05:18:21;;;;;;;;;;;;;;;28.80;45.96;99685.13;5031942;28;19920;-47
2022/06/05 05:20:46;;;;;;;;;;;;;;;29.05;45.59;99677.97;5032300;28;20280;-50
2022/06/05 05:23:12;;;;;;;;;;;;;;;29.21;45.59;99667.25;5032220;28;19956;-49
2022/06/05 05:25:37;;;;;;;;;;;;;;;29.42;45.24;99666.50;5032489;28;19931;-47
2022/06/05 05:28:03;;;;;;;;;;;;;;;29.44;45.23;99664.25;5031844;28;19909;-47
2022/06/05 05:30:28;;;;;;;;;;;;;;;29.90;43.93;99667.97;5032520;28;19916;-46
2022/06/05 05:32:53;;;;;;;;;;;;;;;30.24;42.60;99670.75;5032374;28;19917;-47
2022/06/05 05:35:22;;;;;;;;;;;;;;;30.44;42.50;99677.38;5030849;28;19933;-46
2022/06/05 05:37:47;;;;;;;;;;;;;;;30.52;42.13;99670.97;5032017;28;19909;-47
2022/06/05 05:42:56;;;;;;;;;;;;;;;31.16;40.00;99628.41;5031942;28;19915;-48
2022/06/05 05:45:21;;;;;;;;;;;;;;;31.41;39.66;99659.41;5031819;28;19909;-48
2022/06/05 05:47:47;;;;;;;;;;;;;;;30.29;41.49;99668.63;5030855;28;19916;-50
2022/06/05 05:50:15;;;;;;;;;;;;;;;30.39;41.92;99661.94;5031717;28;19951;-48
2022/06/05 05:52:40;;;;;;;;;;;;;;;30.55;41.71;99667.56;5031488;28;19925;-47
2022/06/05 05:55:09;;;;;;;;;;;;;;;31.17;40.95;99672.03;5031894;28;19958;-46
2022/06/05 05:57:35;;;;;;;;;;;;;;;31.33;40.58;99674.88;5031777;28;19996;-47
2022/06/05 06:00:00;;;;;;;;;;;;;;;32.28;39.54;99671.81;5031454;28;19999;-50
2022/06/05 06:02:26;;;;;;;;;;;;;;;32.10;39.11;99674.09;5031733;28;19915;-46
2022/06/05 06:04:52;;;;;;;;;;;;;;;31.66;40.35;99679.47;5030713;28;19909;-46
2022/06/05 06:07:17;;;;;;;;;;;;;;;31.59;40.46;99678.41;5031384;28;19909;-47
2022/06/05 06:09:43;;;;;;;;;;;;;;;30.88;41.69;99664.78;5031521;28;19916;-46
2022/06/05 06:12:09;;;;;;;;;;;;;;;31.38;40.52;99666.41;5039627;28;19916;-45
2022/06/05 06:14:34;;;;;;;;;;;;;;;31.62;39.36;99659.28;5051034;28;19908;-48
2022/06/05 06:16:59;;;;;;;;;;;;;;;32.17;38.50;99650.66;5051410;28;19991;-50
2022/06/05 06:19:25;;;;;;;;;;;;;;;32.57;37.80;99663.56;5050761;28;19932;-49
2022/06/05 06:21:50;;;;;;;;;;;;;;;32.17;38.36;99656.16;5050116;28;19963;-47
2022/06/05 06:24:16;;;;;;;;;;;;;;;32.05;38.61;99666.06;5049729;28;20381;-47
2022/06/05 06:26:41;;;;;;;;;;;;;;;32.62;37.48;99644.81;5050697;28;19909;-46
2022/06/05 06:29:07;;;;;;;;;;;;;;;32.45;38.16;99642.38;5050763;28;20001;-47
2022/06/05 06:31:34;;;;;;;;;;;;;;;33.33;36.59;99644.97;5050233;28;19920;-46
2022/06/05 06:33:59;;;;;;;;;;;;;;;33.12;37.13;99656.28;5050171;28;19919;-50
2022/06/05 06:36:24;;;;;;;;;;;;;;;32.28;38.25;99647.03;5050560;28;19909;-47
2022/06/05 06:38:49;;;;;;;;;;;;;;;32.83;37.81;99647.31;5050381;28;19908;-50
2022/06/05 06:41:16;;;;;;;;;;;;;;;33.34;37.35;99645.75;5044462;28;19952;-51
2022/06/05 06:43:43;;;;;;;;;;;;;;;33.92;36.63;99648.59;5038646;28;20383;-46
2022/06/05 06:46:09;;;;;;;;;;;;;;;35.14;34.53;99647.25;5034624;28;19916;-47
2022/06/05 06:48:34;;;;;;;;;;;;;;;34.68;35.40;99644.56;5030131;28;19913;-51
2022/06/05 06:51:00;;;;;;;;;;;;;;;34.32;35.25;99643.88;5030221;28;19913;-48
2022/06/05 06:53:26;;;;;;;;;;;;;;;34.25;35.10;99650.06;5029939;28;20443;-48
2022/06/05 06:55:52;;;;;;;;;;;;;;;34.69;34.39;99640.59;5030518;28;19909;-48
2022/06/05 06:58:17;;;;;;;;;;;;;;;35.01;33.63;99639.19;5030325;28;20297;-47
2022/06/05 07:00:43;;;;;;;;;;;;;;;35.54;32.84;99632.84;5030582;28;19921;-48
2022/06/05 07:03:08;;;;;;;;;;;;;;;34.08;34.65;99631.97;5043195;28;20296;-50
2022/06/05 07:05:34;;;;;;;;;;;;;;;34.20;34.24;99633.81;5049229;28;19909;-50
2022/06/05 07:08:00;;;;;;;;;;;;;;;33.91;34.69;99627.72;5050130;28;19908;-49
2022/06/05 07:10:25;;;;;;;;;;;;;;;34.28;33.83;99621.72;5049754;28;20391;-51
2022/06/05 07:12:51;;;;;;;;;;;;;;;35.02;33.71;99624.19;5047985;28;20589;-47
2022/06/05 07:15:16;;;;;;;;;;;;;;;35.33;33.15;99636.09;5042551;28;19924;-52
2022/06/05 07:17:42;;;;;;;;;;;;;;;35.17;33.54;99624.41;5053902;28;19908;-51
2022/06/05 07:20:07;;;;;;;;;;;;;;;34.68;33.98;99619.69;5049092;28;19908;-51
2022/06/05 07:22:33;;;;;;;;;;;;;;;35.31;33.23;99616.31;5050608;28;20375;-51
2022/06/05 07:24:59;;;;;;;;;;;;;;;35.40;33.07;99621.59;5033792;28;19909;-38
2022/06/05 07:27:25;;;;;;;;;;;;;;;35.34;33.91;99618.34;5042508;28;19913;-38
2022/06/05 07:29:50;;;;;;;;;;;;;;;34.53;34.78;99608.34;5040191;28;19909;-51
2022/06/05 07:32:16;;;;;;;;;;;;;;;34.72;34.92;99610.28;5038696;28;20007;-51
2022/06/05 07:34:41;;;;;;;;;;;;;;;35.09;34.79;99617.16;5037590;28;19928;-54
2022/06/05 07:37:06;;;;;;;;;;;;;;;34.80;34.61;99592.63;5042729;28;20373;-52
2022/06/05 07:39:32;;;;;;;;;;;;;;;35.31;34.15;99599.72;5042411;28;19960;-52
2022/06/05 07:41:58;;;;;;;;;;;;;;;34.77;34.91;99596.16;5043495;28;19917;-53
2022/06/05 07:44:24;;;;;;;;;;;;;;;35.08;34.99;99599.78;5048612;28;19996;-51
2022/06/05 07:46:50;;;;;;;;;;;;;;;35.01;34.70;99596.91;5037950;28;19915;-52
2022/06/05 07:49:16;;;;;;;;;;;;;;;35.14;34.85;99603.03;5035265;28;19909;-50
2022/06/05 07:54:30;;;;;;;;;;;;;;;34.85;34.69;99594.31;5048611;28;19984;-51
2022/06/05 07:57:02;;;;;;;;;;;;;;;34.60;35.62;99599.41;5050345;28;19924;-50
2022/06/05 07:59:29;;;;;;;;;;;;;;;35.63;34.51;99597.38;5034627;28;20254;-51
2022/06/05 08:01:56;;;;;;;;;;;;;;;36.10;32.55;99592.41;5047274;28;19916;-52
2022/06/05 08:04:21;;;;;;;;;;;;;;;36.57;31.94;99588.09;5050438;28;19966;-52
2022/06/05 08:06:48;;;;;;;;;;;;;;;35.77;32.73;99598.75;5050957;28;19932;-52
2022/06/05 08:09:14;;;;;;;;;;;;;;;34.59;34.59;99598.59;5050774;28;19916;-52
2022/06/05 08:11:42;;;;;;;;;;;;;;;35.47;33.70;99593.22;5046742;28;19909;-51
2022/06/05 08:14:08;;;;;;;;;;;;;;;35.59;33.36;99593.00;5034690;28;19916;-49
2022/06/05 08:16:33;;;;;;;;;;;;;;;35.39;33.34;99587.59;5034045;28;19913;-52
2022/06/05 08:18:58;;;;;;;;;;;;;;;36.04;32.90;99588.38;5033280;28;19909;-52
2022/06/05 08:21:24;;;;;;;;;;;;;;;35.61;33.61;99593.41;5044890;28;19950;-53
2022/06/05 08:23:49;;;;;;;;;;;;;;;35.84;33.45;99576.72;5048812;28;20006;-53
2022/06/05 08:26:15;;;;;;;;;;;;;;;36.31;32.36;99585.50;5044546;28;20004;-51
2022/06/05 08:28:40;;;;;;;;;;;;;;;36.61;31.98;99579.81;5041583;28;19913;-52
2022/06/05 08:31:06;;;;;;;;;;;;;;;36.46;32.03;99578.94;5049929;28;19966;-51
2022/06/05 08:33:31;;;;;;;;;;;;;;;36.03;32.51;99572.97;5052218;28;19913;-51
2022/06/05 08:35:57;;;;;;;;;;;;;;;36.41;32.23;99568.19;5052172;28;19951;-51
2022/06/05 08:41:26;;;;;;;;;;;;;;;37.15;31.75;99581.06;5051910;28;19982;-51
2022/06/05 08:44:04;;;;;;;;;;;;;;;37.45;31.26;99582.81;5051936;28;19908;-52
2022/06/05 08:46:32;;;;;;;;;;;;;;;37.67;30.67;99578.13;5052073;28;19909;-53
2022/06/05 08:49:00;;;;;;;;;;;;;;;37.19;31.25;99578.31;5051899;28;20029;-53
2022/06/05 08:51:28;;;;;;;;;;;;;;;36.13;32.20;99569.47;5051875;28;19912;-53
2022/06/05 08:54:00;;;;;;;;;;;;;;;35.77;32.75;99562.78;5051630;28;19938;-52
2022/06/05 08:56:38;;;;;;;;;;;;;;;36.98;31.24;99568.66;5052007;28;19952;-51
2022/06/05 08:59:07;;;;;;;;;;;;;;;37.36;31.28;99565.72;5052044;28;19916;-52
2022/06/05 09:01:55;;;;;;;;;;;;;;;37.26;30.58;99560.88;5051433;28;19956;-53
2022/06/05 09:04:25;;;;;;;;;;;;;;;37.24;31.10;99564.03;5051509;28;19996;-52
2022/06/05 09:06:57;;;;;;;;;;;;;;;37.24;30.76;99566.81;5051050;28;19931;-53
2022/06/05 09:09:24;;;;;;;;;;;;;;;37.50;30.35;99554.66;5050695;28;19928;-50
2022/06/05 09:12:10;;;;;;;;;;;;;;;37.68;30.25;99556.72;5044867;28;20340;-52
2022/06/05 09:14:59;;;;;;;;;;;;;;;37.78;29.60;99555.19;5026050;28;20298;-50
2022/06/05 09:17:25;;;;;;;;;;;;;;;37.80;28.93;99548.06;5030830;28;19909;-52
2022/06/05 09:19:51;;;;;;;;;;;;;;;37.37;30.49;99553.41;5030499;28;20000;-53
2022/06/05 09:22:18;;;;;;;;;;;;;;;37.39;29.61;99559.38;5030161;28;19952;-52
2022/06/05 09:24:44;;;;;;;;;;;;;;;37.19;29.44;99547.78;5030332;28;19920;-52
2022/06/05 09:27:14;;;;;;;;;;;;;;;37.82;29.14;99545.66;5031574;28;20031;-53
2022/06/05 09:29:52;;;;;;;;;;;;;;;38.46;28.22;99533.84;5031272;28;19920;-52
2022/06/05 09:32:17;;;;;;;;;;;;;;;38.76;27.55;99531.84;5029742;28;19955;-53
2022/06/05 09:34:48;;;;;;;;;;;;;;;38.54;28.18;99529.13;5030700;28;20298;-53
2022/06/05 09:37:23;;;;;;;;;;;;;;;38.04;28.21;99535.41;5030991;28;19908;-50
2022/06/05 09:39:51;;;;;;;;;;;;;;;38.22;28.20;99527.09;5029618;28;19962;-52
2022/06/05 09:42:19;;;;;;;;;;;;;;;38.46;26.77;99519.16;5033447;28;19970;-52
2022/06/05 09:44:50;;;;;;;;;;;;;;;38.15;26.24;99524.31;5045079;28;19909;-52
2022/06/05 09:47:23;;;;;;;;;;;;;;;38.32;26.36;99522.75;5034027;28;19909;-52
2022/06/05 09:49:51;;;;;;;;;;;;;;;38.61;25.66;99522.75;5043872;28;19908;-52
2022/06/05 09:52:16;;;;;;;;;;;;;;;38.27;26.61;99512.81;5041211;28;20447;-53
2022/06/05 09:54:47;;;;;;;;;;;;;;;38.68;25.76;99500.50;5036097;28;19917;-51
2022/06/05 10:00:00;;;;;;;;;;;;;;;38.34;26.06;99498.91;5038104;28;20451;-52
2022/06/05 10:02:26;;;;;;;;;;;;;;;38.16;25.86;99503.69;5038005;28;20018;-51
2022/06/05 10:04:52;;;;;;;;;;;;;;;37.52;25.96;99498.78;5045482;28;19912;-52
2022/06/05 10:07:24;;;;;;;;;;;;;;;38.21;26.05;99496.94;5030949;28;20329;-52
2022/06/05 10:09:50;;;;;;;;;;;;;;;38.04;25.83;99496.53;5037120;28;19908;-52
2022/06/05 10:12:20;;;;;;;;;;;;;;;38.34;25.46;99500.91;5039575;28;20301;-52
2022/06/05 10:14:50;;;;;;;;;;;;;;;38.79;24.99;99486.59;5030441;28;20277;-53
2022/06/05 10:17:27;;;;;;;;;;;;;;;38.89;24.28;99486.53;5046529;28;19931;-50
2022/06/05 10:19:52;;;;;;;;;;;;;;;38.56;24.89;99471.16;5032745;28;20293;-52
2022/06/05 10:22:27;;;;;;;;;;;;;;;37.94;25.18;99475.88;5040904;28;19908;-52
2022/06/05 10:25:04;;;;;;;;;;;;;;;38.45;24.74;99464.78;5034293;28;19935;-52
2022/06/05 10:27:30;;;;;;;;;;;;;;;38.00;23.81;99462.38;5034278;28;19908;-53
2022/06/05 10:29:56;;;;;;;;;;;;;;;37.86;23.98;99463.19;5042399;28;19909;-52
2022/06/05 10:32:24;;;;;;;;;;;;;;;37.70;24.54;99458.03;5041217;28;19928;-53
2022/06/05 10:34:49;;;;;;;;;;;;;;;38.27;24.11;99462.81;5034772;28;20385;-52
2022/06/05 10:37:15;;;;;;;;;;;;;;;38.36;24.09;99461.63;5046511;28;19913;-53
2022/06/05 10:39:59;;;;;;;;;;;;;;;38.50;23.77;99467.94;5035720;28;19912;-52
2022/06/05 10:42:28;;;;;;;;;;;;;;;38.07;24.47;99459.66;5037929;28;19919;-52
2022/06/05 10:45:02;;;;;;;;;;;;;;;38.00;25.24;99456.84;5045285;28;20321;-52
2022/06/05 10:47:35;;;;;;;;;;;;;;;37.59;24.71;99457.19;5033886;28;19913;-53
2022/06/05 10:50:03;;;;;;;;;;;;;;;37.82;25.03;99445.72;5042003;28;19909;-51
2022/06/05 10:52:32;;;;;;;;;;;;;;;37.35;25.73;99442.84;5048722;28;20218;-52
2022/06/05 10:54:57;;;;;;;;;;;;;;;37.60;25.06;99439.31;5056543;28;19923;-52
2022/06/05 10:57:27;;;;;;;;;;;;;;;37.91;24.78;99434.25;5056343;28;19908;-51
2022/06/05 11:00:00;;;;;;;;;;;;;;;37.75;24.99;99432.63;5056781;28;19908;-52
2022/06/05 11:02:32;;;;;;;;;;;;;;;37.71;25.27;99434.59;5056472;28;20004;-50
2022/06/05 11:04:58;;;;;;;;;;;;;;;38.45;24.17;99420.31;5056640;28;19909;-52
2022/06/05 11:07:26;;;;;;;;;;;;;;;38.81;23.84;99425.81;5056685;28;19914;-53
2022/06/05 11:09:56;;;;;;;;;;;;;;;38.43;23.96;99417.16;5056557;28;19912;-53
2022/06/05 11:15:14;;;;;;;;;;;;;;;39.82;22.47;99415.72;5036180;28;19993;-53
2022/06/05 11:18:02;;;;;;;;;;;;;;;39.22;22.97;99417.69;5046780;28;19936;-52
2022/06/05 11:20:29;;;;;;;;;;;;;;;38.56;23.64;99414.75;5046513;28;19916;-52
2022/06/05 11:23:00;;;;;;;;;;;;;;;39.28;22.96;99406.91;5036605;28;19916;-52
2022/06/05 11:25:29;;;;;;;;;;;;;;;40.02;22.59;99404.03;5036505;28;19909;-53
2022/06/05 11:27:59;;;;;;;;;;;;;;;39.92;21.74;99402.94;5036524;28;19909;-53
2022/06/05 11:30:43;;;;;;;;;;;;;;;39.39;22.52;99406.84;5036437;28;19908;-52
2022/06/05 11:33:08;;;;;;;;;;;;;;;40.00;21.50;99398.09;5036262;28;19917;-53
2022/06/05 11:35:37;;;;;;;;;;;;;;;39.12;21.60;99403.84;5036795;28;19909;-52
2022/06/05 11:38:02;;;;;;;;;;;;;;;39.45;21.97;99406.06;5035596;28;19912;-52
2022/06/05 11:40:43;;;;;;;;;;;;;;;39.36;21.99;99402.13;5036544;28;19916;-52
2022/06/05 11:43:14;;;;;;;;;;;;;;;39.03;22.20;99404.28;5035993;28;19908;-51
2022/06/05 11:45:52;;;;;;;;;;;;;;;39.01;22.01;99401.91;5036258;28;19909;-53
2022/06/05 11:48:23;;;;;;;;;;;;;;;38.80;22.25;99397.19;5036236;28;19993;-52
2022/06/05 11:51:07;;;;;;;;;;;;;;;39.53;21.77;99397.63;5036107;28;20361;-53
2022/06/05 11:53:32;;;;;;;;;;;;;;;39.31;22.39;99397.75;5035946;28;19924;-52
2022/06/05 11:56:03;;;;;;;;;;;;;;;39.20;22.08;99402.59;5036570;28;19909;-52
2022/06/05 11:58:47;;;;;;;;;;;;;;;38.91;21.58;99406.28;5036584;28;19913;-52
2022/06/05 12:01:23;;;;;;;;;;;;;;;39.34;22.13;99396.16;5036566;28;19916;-51
2022/06/05 12:04:10;;;;;;;;;;;;;;;39.83;20.85;99386.69;5033850;28;19917;-52
2022/06/05 12:06:39;;;;;;;;;;;;;;;39.34;21.39;99373.88;5033836;28;19924;-51
2022/06/05 12:09:10;;;;;;;;;;;;;;;39.37;22.39;99387.00;5032981;28;20004;-51
2022/06/05 12:11:36;;;;;;;;;;;;;;;39.60;21.97;99378.88;5031700;28;19964;-52
2022/06/05 12:14:19;;;;;;;;;;;;;;;38.80;22.54;99374.16;5031838;28;20027;-52
2022/06/05 12:16:50;;;;;;;;;;;;;;;38.72;22.74;99376.19;5031116;28;19988;-52
2022/06/05 12:19:32;;;;;;;;;;;;;;;38.68;23.40;99370.63;5032803;28;20011;-52
2022/06/05 12:22:03;;;;;;;;;;;;;;;38.01;23.11;99368.78;5032330;28;20132;-53
2022/06/05 12:24:44;;;;;;;;;;;;;;;39.13;22.54;99361.72;5031690;28;19909;-50
2022/06/05 12:27:15;;;;;;;;;;;;;;;37.72;23.28;99366.81;5032166;28;19916;-52
2022/06/05 12:29:51;;;;;;;;;;;;;;;38.12;23.46;99361.25;5032308;28;20403;-51
2022/06/05 12:32:23;;;;;;;;;;;;;;;38.81;22.67;99354.31;5032593;28;19917;-51
2022/06/05 12:35:14;;;;;;;;;;;;;;;38.00;23.73;99350.53;5032420;28;19920;-51
2022/06/05 12:37:43;;;;;;;;;;;;;;;38.63;22.66;99348.84;5016419;28;19915;-51
2022/06/05 12:40:21;;;;;;;;;;;;;;;38.86;22.38;99339.19;5031318;28;19916;-51
2022/06/05 12:43:10;;;;;;;;;;;;;;;39.07;22.30;99339.09;5032423;28;19916;-52
2022/06/05 12:45:38;;;;;;;;;;;;;;;38.75;22.67;99325.34;5026507;28;19909;-51
2022/06/05 12:48:14;;;;;;;;;;;;;;;38.30;22.48;99316.75;5032741;28;20416;-52
2022/06/05 12:50:47;;;;;;;;;;;;;;;38.26;22.57;99321.53;5032251;28;19999;-51
2022/06/05 12:53:31;;;;;;;;;;;;;;;38.72;21.18;99310.25;5032319;28;19921;-52
2022/06/05 12:56:07;;;;;;;;;;;;;;;37.98;21.74;99312.06;5032350;28;19915;-51
2022/06/05 12:58:35;;;;;;;;;;;;;;;38.09;20.12;99307.28;5032471;28;19913;-51
2022/06/05 13:01:05;;;;;;;;;;;;;;;37.78;20.35;99295.03;5032219;28;19931;-52
2022/06/05 13:03:30;;;;;;;;;;;;;;;38.03;20.20;99302.53;5032268;28;19915;-50
2022/06/05 13:05:55;;;;;;;;;;;;;;;37.82;20.03;99287.50;5032138;28;19941;-52
2022/06/05 13:08:44;;;;;;;;;;;;;;;37.28;20.18;99300.56;5032006;28;19920;-50
2022/06/05 13:11:18;;;;;;;;;;;;;;;37.65;19.80;99285.53;5026323;28;19996;-52
2022/06/05 13:13:53;;;;;;;;;;;;;;;38.34;20.17;99292.53;5031280;28;19920;-51